Time;durP1;ratioP1;P1;durP2;ratioP2;P2;SDS_P1;SDS_P2;PMS_P1;PMS_P2;Temp;Humidity;BMP_temperature;BMP_pressure;BME280_temperature;BME280_humidity;BME280_pressure;Samples;Min_cycle;Max_cycle;Signal;HPM_P1;HPM_P2
2022/10/31 00:01:47;;;;;;;66.43;63.38;;;;;;;11.94;100.00;101972.59;5027645;28;20045;-85
2022/10/31 00:04:12;;;;;;;60.88;57.88;;;;;;;11.80;100.00;101956.19;5019071;28;20033;-85
2022/10/31 00:06:37;;;;;;;72.93;69.03;;;;;;;11.79;100.00;101965.94;5017733;28;20993;-85
2022/10/31 00:09:04;;;;;;;62.50;59.35;;;;;;;11.55;100.00;101936.31;5008711;28;20033;-85
2022/10/31 00:11:30;;;;;;;59.83;56.88;;;;;;;11.81;100.00;101992.28;5020264;28;20029;-85
2022/10/31 00:13:57;;;;;;;64.93;61.88;;;;;;;11.50;100.00;101953.41;5017889;28;20033;-85
2022/10/31 00:16:25;;;;;;;63.88;61.00;;;;;;;11.66;100.00;101986.47;5015584;28;20491;-84
2022/10/31 00:18:57;;;;;;;61.38;58.03;;;;;;;11.64;100.00;101994.53;5018017;28;20036;-85
2022/10/31 00:21:23;;;;;;;59.70;56.67;;;;;;;11.47;100.00;101977.44;5015840;28;20029;-85
2022/10/31 00:23:49;;;;;;;66.07;63.10;;;;;;;11.46;100.00;101983.69;5017923;28;20041;-85
2022/10/31 00:26:15;;;;;;;66.95;63.13;;;;;;;11.52;100.00;102009.63;4984901;28;20041;-85
2022/10/31 00:28:41;;;;;;;64.05;60.88;;;;;;;11.45;100.00;102005.81;5000174;28;20093;-85
2022/10/31 00:31:10;;;;;;;72.57;69.35;;;;;;;11.39;100.00;102000.19;5032776;28;20552;-86
2022/10/31 00:33:37;;;;;;;61.58;58.47;;;;;;;11.35;100.00;102007.53;5030413;28;20042;-85
2022/10/31 00:36:04;;;;;;;67.32;64.32;;;;;;;11.16;100.00;101987.06;5022964;28;20404;-85
2022/10/31 00:38:30;;;;;;;69.72;66.50;;;;;;;11.10;100.00;101983.13;5008796;28;20041;-85
2022/10/31 00:40:56;;;;;;;65.78;62.75;;;;;;;11.26;100.00;102010.94;5019724;28;20029;-84
2022/10/31 00:43:21;;;;;;;62.40;59.33;;;;;;;11.24;100.00;102002.31;5008090;28;20034;-84
2022/10/31 00:45:46;;;;;;;64.50;59.60;;;;;;;11.21;100.00;102002.53;5001047;28;20041;-84
2022/10/31 00:48:12;;;;;;;63.15;60.25;;;;;;;11.15;100.00;101992.47;5022886;28;20596;-84
2022/10/31 00:50:38;;;;;;;67.40;64.32;;;;;;;11.21;100.00;102013.09;5015678;28;20025;-84
2022/10/31 00:53:03;;;;;;;62.83;59.80;;;;;;;11.02;100.00;102004.06;5017639;28;20038;-84
2022/10/31 00:55:29;;;;;;;63.55;60.67;;;;;;;11.03;100.00;102011.00;5014874;28;20029;-84
2022/10/31 00:57:54;;;;;;;67.22;64.20;;;;;;;10.83;100.00;101985.38;5026560;28;20050;-84
2022/10/31 01:00:20;;;;;;;61.63;58.33;;;;;;;10.99;100.00;102020.13;5006097;28;20033;-84
2022/10/31 01:02:46;;;;;;;71.38;68.47;;;;;;;10.99;100.00;102020.13;5022070;28;20623;-84
2022/10/31 01:05:12;;;;;;;57.65;54.88;;;;;;;10.89;100.00;102008.66;5021005;28;20058;-85
2022/10/31 01:07:39;;;;;;;65.47;62.60;;;;;;;10.98;100.00;102023.75;5019669;28;20025;-85
2022/10/31 01:10:05;;;;;;;66.32;63.38;;;;;;;11.00;100.00;102029.75;5026203;28;20033;-85
2022/10/31 01:12:36;;;;;;;58.42;56.03;;;;;;;10.91;100.00;102014.66;5009965;28;20175;-85
2022/10/31 01:15:02;;;;;;;72.32;68.03;;;;;;;10.97;100.00;102027.34;5021483;28;20038;-85
2022/10/31 01:17:27;;;;;;;70.53;67.30;;;;;;;11.02;100.00;102035.75;5011580;28;20449;-85
2022/10/31 01:19:53;;;;;;;67.93;64.38;;;;;;;11.02;100.00;102038.41;5001908;28;20030;-85
2022/10/31 01:22:18;;;;;;;70.93;67.80;;;;;;;10.99;100.00;102032.50;4987138;28;20396;-85
2022/10/31 01:24:43;;;;;;;73.28;70.25;;;;;;;10.89;100.00;102024.50;5021690;28;20045;-85
2022/10/31 01:27:09;;;;;;;75.30;72.03;;;;;;;10.97;100.00;102037.06;5004432;28;20175;-85
2022/10/31 01:29:34;;;;;;;65.85;62.80;;;;;;;11.00;100.00;102035.03;5002257;28;20033;-84
2022/10/31 01:31:59;;;;;;;66.93;63.72;;;;;;;10.83;100.00;102019.72;5003919;28;20041;-84
2022/10/31 01:34:25;;;;;;;58.50;55.92;;;;;;;10.95;100.00;102039.00;5002346;28;20041;-84
2022/10/31 01:36:51;;;;;;;70.43;67.32;;;;;;;10.72;100.00;101995.97;5009957;28;20045;-84
2022/10/31 01:39:17;;;;;;;65.07;61.53;;;;;;;10.69;100.00;102008.44;4986962;28;20495;-85
2022/10/31 01:41:47;;;;;;;63.65;59.35;;;;;;;10.93;100.00;102048.84;5018368;28;20034;-84
2022/10/31 01:44:15;;;;;;;70.32;66.38;;;;;;;10.94;100.00;102050.53;5019541;28;20034;-85
2022/10/31 01:46:53;;;;;;;60.97;57.97;;;;;;;10.87;100.00;102031.72;5019512;28;20129;-85
2022/10/31 01:49:18;;;;;;;66.68;63.72;;;;;;;10.96;100.00;102038.88;5026084;28;20061;-84
2022/10/31 01:51:50;;;;;;;66.70;63.60;;;;;;;10.85;100.00;102015.97;5020550;28;20047;-84
2022/10/31 01:54:20;;;;;;;72.55;69.32;;;;;;;10.90;100.00;102029.63;5019071;28;20538;-84
2022/10/31 01:56:50;;;;;;;70.03;66.75;;;;;;;10.89;100.00;102030.63;5024123;28;20130;-84
2022/10/31 01:59:19;;;;;;;72.85;69.50;;;;;;;10.94;100.00;102042.63;5024577;28;20565;-84
2022/10/31 02:01:45;;;;;;;76.63;73.40;;;;;;;10.84;100.00;102030.16;5019443;28;20048;-84
2022/10/31 02:04:11;;;;;;;77.65;74.18;;;;;;;10.90;100.00;102032.28;5020364;28;20075;-84
2022/10/31 02:06:50;;;;;;;77.68;74.18;;;;;;;10.73;100.00;102010.84;5021079;28;20116;-84
2022/10/31 02:09:23;;;;;;;70.80;67.55;;;;;;;10.87;100.00;102032.53;5018096;28;20029;-84
2022/10/31 02:11:51;;;;;;;72.63;69.18;;;;;;;10.72;100.00;102009.16;5017951;28;20029;-84
2022/10/31 02:14:17;;;;;;;74.65;71.30;;;;;;;10.73;100.00;102009.03;5021971;28;20091;-85
2022/10/31 02:16:43;;;;;;;80.07;75.97;;;;;;;10.66;100.00;102002.56;5009526;28;20026;-84
2022/10/31 02:19:13;;;;;;;70.60;66.75;;;;;;;10.69;100.00;102013.72;5018439;28;20032;-85
2022/10/31 02:21:58;;;;;;;75.10;70.82;;;;;;;10.62;100.00;102009.03;5026481;28;20025;-85
2022/10/31 02:24:45;;;;;;;74.47;71.00;;;;;;;10.62;100.00;102017.78;5016928;28;20120;-85
2022/10/31 02:27:46;;;;;;;75.80;72.38;;;;;;;10.57;100.00;102021.78;5024609;28;20412;-84
2022/10/31 02:30:23;;;;;;;82.50;78.78;;;;;;;10.24;100.00;101971.50;5012691;28;20045;-84
2022/10/31 02:32:58;;;;;;;69.38;66.57;;;;;;;10.55;100.00;102032.44;5027003;28;20637;-84
2022/10/31 02:35:42;;;;;;;68.13;64.93;;;;;;;10.53;100.00;102033.53;5020781;28;20025;-84
2022/10/31 02:38:33;;;;;;;69.78;66.45;;;;;;;10.53;100.00;102039.66;5020180;28;20028;-84
2022/10/31 02:41:09;;;;;;;75.80;72.38;;;;;;;10.49;100.00;102043.47;4987863;28;20053;-84
2022/10/31 02:44:02;;;;;;;74.10;70.57;;;;;;;10.37;100.00;102029.47;5021069;28;20028;-84
2022/10/31 02:46:46;;;;;;;76.38;72.82;;;;;;;10.46;100.00;102043.75;5019236;28;20434;-84
2022/10/31 02:49:36;;;;;;;68.28;65.10;;;;;;;10.29;100.00;102013.38;5017953;28;20392;-85
2022/10/31 02:52:02;;;;;;;74.55;71.25;;;;;;;10.31;100.00;102018.53;5017112;28;20033;-84
2022/10/31 02:54:28;;;;;;;74.28;70.03;;;;;;;10.26;100.00;102022.34;5001926;28;20068;-84
2022/10/31 02:57:00;;;;;;;65.53;62.17;;;;;;;10.05;100.00;101984.44;5001990;28;20064;-84
2022/10/31 02:59:27;;;;;;;65.68;63.03;;;;;;;10.29;100.00;102023.94;5020813;28;20072;-84
2022/10/31 03:02:01;;;;;;;72.38;69.00;;;;;;;10.33;100.00;102027.19;4986378;28;20129;-84
2022/10/31 03:04:39;;;;;;;65.90;63.15;;;;;;;10.25;100.00;102014.53;5020284;28;20025;-84
2022/10/31 03:07:10;;;;;;;67.35;64.13;;;;;;;10.31;100.00;102023.81;5018531;28;20029;-84
2022/10/31 03:09:48;;;;;;;75.03;71.60;;;;;;;10.32;100.00;102033.41;5023303;28;20567;-84
2022/10/31 03:12:25;;;;;;;72.25;68.82;;;;;;;10.19;100.00;102021.16;5017196;28;20076;-84
2022/10/31 03:15:08;;;;;;;74.03;70.88;;;;;;;10.16;100.00;102015.25;5019383;28;20053;-84
2022/10/31 03:17:43;;;;;;;74.75;71.28;;;;;;;10.11;100.00;102020.91;5020267;28;20026;-84
2022/10/31 03:20:10;;;;;;;73.75;69.68;;;;;;;10.15;100.00;102035.53;5016350;28;20083;-84
2022/10/31 03:22:39;;;;;;;63.88;60.38;;;;;;;10.13;100.00;102032.16;5024895;28;20546;-84
2022/10/31 03:25:06;;;;;;;74.90;71.60;;;;;;;10.00;100.00;102020.88;5017522;28;20056;-84
2022/10/31 03:27:35;;;;;;;66.43;63.35;;;;;;;10.05;100.00;102039.81;5015367;28;20038;-84
2022/10/31 03:30:04;;;;;;;69.60;66.40;;;;;;;10.03;100.00;102036.47;5026869;28;20030;-85
2022/10/31 03:32:39;;;;;;;75.80;71.95;;;;;;;10.03;100.00;102036.47;5017512;28;20040;-85
2022/10/31 03:35:06;;;;;;;70.07;66.85;;;;;;;9.74;100.00;101993.88;5019835;28;20022;-84
2022/10/31 03:37:34;;;;;;;72.78;68.53;;;;;;;9.89;100.00;102027.81;5017378;28;20074;-84
2022/10/31 03:40:01;;;;;;;74.15;70.93;;;;;;;9.85;100.00;102031.63;5001848;28;20041;-84
2022/10/31 03:42:33;;;;;;;76.72;73.43;;;;;;;9.67;100.00;102004.03;5001059;28;20511;-84
2022/10/31 03:45:04;;;;;;;73.18;69.82;;;;;;;9.91;100.00;102048.78;5019495;28;20504;-84
2022/10/31 03:47:30;;;;;;;79.83;76.33;;;;;;;9.64;100.00;101998.97;5016160;28;20137;-84
2022/10/31 03:49:56;;;;;;;73.97;70.57;;;;;;;9.91;100.00;102051.44;5017582;28;20383;-84
2022/10/31 03:52:33;;;;;;;78.03;74.85;;;;;;;9.89;100.00;102041.00;5000119;28;20485;-85
2022/10/31 03:55:07;;;;;;;76.90;73.47;;;;;;;9.86;100.00;102053.56;5032607;28;20030;-84
2022/10/31 03:57:43;;;;;;;87.78;84.07;;;;;;;9.82;100.00;102052.97;5025119;28;20131;-84
2022/10/31 04:00:12;;;;;;;79.97;75.75;;;;;;;9.70;100.00;102038.06;5020091;28;20030;-84
2022/10/31 04:02:47;;;;;;;86.40;82.47;;;;;;;9.74;100.00;102042.16;5018801;28;20464;-84
2022/10/31 04:05:15;;;;;;;85.05;81.50;;;;;;;9.65;100.00;102027.03;5031700;28;20480;-84
2022/10/31 04:07:47;;;;;;;87.47;83.38;;;;;;;9.76;100.00;102049.94;5003327;28;20040;-84
2022/10/31 04:10:15;;;;;;;75.15;71.75;;;;;;;9.42;100.00;101995.31;5016326;28;20025;-84
2022/10/31 04:12:43;;;;;;;81.55;78.03;;;;;;;9.66;100.00;102045.34;5027147;28;20492;-84
2022/10/31 04:15:09;;;;;;;80.88;77.05;;;;;;;9.53;100.00;102030.56;5024949;28;20030;-84
2022/10/31 04:17:39;;;;;;;72.68;69.03;;;;;;;9.63;100.00;102042.13;5026490;28;20033;-84
2022/10/31 04:20:05;;;;;;;85.10;81.25;;;;;;;9.54;100.00;102037.50;5026070;28;20037;-84
2022/10/31 04:22:30;;;;;;;75.82;72.30;;;;;;;9.50;100.00;102036.91;5002933;28;20513;-84
2022/10/31 04:24:56;;;;;;;77.35;73.80;;;;;;;9.53;100.00;102055.13;5000650;28;20040;-84
2022/10/31 04:27:21;;;;;;;73.63;70.43;;;;;;;9.52;100.00;102052.63;5018712;28;20034;-84
2022/10/31 04:29:46;;;;;;;77.90;74.45;;;;;;;9.40;100.00;102035.91;5018749;28;20018;-84
2022/10/31 04:32:12;;;;;;;83.30;79.18;;;;;;;9.32;100.00;102028.59;5017322;28;20042;-84
2022/10/31 04:34:37;;;;;;;74.70;71.45;;;;;;;9.29;100.00;102031.44;5016676;28;20044;-84
2022/10/31 04:37:03;;;;;;;79.40;75.78;;;;;;;9.41;100.00;102051.63;4988231;28;20033;-84
2022/10/31 04:39:28;;;;;;;73.75;70.10;;;;;;;9.18;100.00;102015.56;5001673;28;20034;-86
2022/10/31 04:41:53;;;;;;;69.07;65.80;;;;;;;9.29;100.00;102041.97;5003932;28;20504;-84
2022/10/31 04:44:19;;;;;;;63.42;60.25;;;;;;;9.22;100.00;102033.66;5001814;28;20640;-85
2022/10/31 04:46:44;;;;;;;67.40;64.18;;;;;;;9.34;100.00;102055.66;5001878;28;20038;-85
2022/10/31 04:49:10;;;;;;;63.75;60.85;;;;;;;9.18;100.00;102028.75;5020108;28;20685;-85
2022/10/31 04:51:35;;;;;;;69.97;66.13;;;;;;;9.17;100.00;102032.34;5002826;28;20079;-85
2022/10/31 04:54:01;;;;;;;60.20;57.47;;;;;;;9.17;100.00;102032.34;5002697;28;20116;-85
2022/10/31 04:56:26;;;;;;;72.38;69.13;;;;;;;9.20;100.00;102040.00;5018716;28;20057;-85
2022/10/31 04:58:52;;;;;;;64.25;60.72;;;;;;;9.25;100.00;102051.91;5003254;28;20050;-85
2022/10/31 05:01:17;;;;;;;61.03;57.80;;;;;;;9.14;100.00;102029.91;5009759;28;20033;-85
2022/10/31 05:03:42;;;;;;;65.68;62.58;;;;;;;9.10;100.00;102036.34;4985681;28;20034;-85
2022/10/31 05:06:08;;;;;;;72.40;68.80;;;;;;;8.99;100.00;102030.09;5017971;28;20026;-85
2022/10/31 05:08:33;;;;;;;58.60;55.67;;;;;;;9.06;100.00;102041.84;5001182;28;20500;-85
2022/10/31 05:11:02;;;;;;;56.80;53.90;;;;;;;9.06;100.00;102035.75;5021668;28;20025;-84
2022/10/31 05:13:28;;;;;;;65.13;62.08;;;;;;;9.12;100.00;102039.72;5016824;28;20118;-84
2022/10/31 05:15:53;;;;;;;62.35;59.35;;;;;;;9.00;100.00;102026.50;5003883;28;20042;-85
2022/10/31 05:18:19;;;;;;;67.45;63.78;;;;;;;9.05;100.00;102040.16;5008695;28;20037;-85
2022/10/31 05:20:44;;;;;;;63.95;61.15;;;;;;;9.10;100.00;102041.63;5019085;28;20048;-84
2022/10/31 05:23:10;;;;;;;68.43;65.35;;;;;;;8.77;100.00;101995.72;5017145;28;20025;-85
2022/10/31 05:25:35;;;;;;;64.93;61.85;;;;;;;8.88;100.00;102027.38;5001619;28;20037;-85
2022/10/31 05:28:00;;;;;;;67.15;64.03;;;;;;;9.02;100.00;102047.47;5016528;28;20033;-84
2022/10/31 05:30:29;;;;;;;68.35;65.30;;;;;;;9.01;100.00;102054.50;5005288;28;20105;-85
2022/10/31 05:32:55;;;;;;;67.47;64.18;;;;;;;8.93;100.00;102051.59;5025377;28;20070;-85
2022/10/31 05:35:26;;;;;;;54.13;51.60;;;;;;;8.93;100.00;102056.00;5020198;28;20112;-84
2022/10/31 05:37:51;;;;;;;62.83;59.83;;;;;;;8.89;100.00;102049.28;5017189;28;20049;-85
2022/10/31 05:40:19;;;;;;;60.47;57.78;;;;;;;8.92;100.00;102059.59;5017805;28;20053;-85
2022/10/31 05:42:46;;;;;;;67.57;64.00;;;;;;;8.90;100.00;102054.41;5019289;28;20128;-84
2022/10/31 05:45:15;;;;;;;64.60;61.58;;;;;;;8.91;100.00;102064.03;5021836;28;20504;-85
2022/10/31 05:47:41;;;;;;;57.30;54.38;;;;;;;8.89;100.00;102063.28;5021504;28;20029;-85
2022/10/31 05:50:08;;;;;;;59.55;56.38;;;;;;;8.83;100.00;102051.38;5021924;28;20041;-85
2022/10/31 05:52:33;;;;;;;61.67;57.83;;;;;;;8.84;100.00;102052.22;5021134;28;20028;-85
2022/10/31 05:54:59;;;;;;;59.90;57.00;;;;;;;8.85;100.00;102054.75;5012601;28;20034;-85
2022/10/31 05:57:24;;;;;;;67.93;64.45;;;;;;;8.86;100.00;102055.59;4994312;28;20073;-85
2022/10/31 05:59:52;;;;;;;63.50;60.08;;;;;;;8.81;100.00;102041.91;5023615;28;20055;-85
2022/10/31 06:02:21;;;;;;;71.28;68.05;;;;;;;8.84;100.00;102045.19;5022021;28;20063;-85
2022/10/31 06:04:47;;;;;;;58.05;55.05;;;;;;;8.78;100.00;102044.78;5019398;28;20094;-85
2022/10/31 06:07:12;;;;;;;52.85;50.15;;;;;;;8.85;100.00;102056.56;5002655;28;20163;-86
2022/10/31 06:09:38;;;;;;;61.30;58.25;;;;;;;8.92;100.00;102060.41;5018637;28;20109;-86
2022/10/31 06:12:03;;;;;;;61.08;58.17;;;;;;;8.88;100.00;102051.06;5018831;28;20125;-85
2022/10/31 06:14:28;;;;;;;64.82;61.92;;;;;;;8.82;100.00;102047.09;5003027;28;20033;-86
2022/10/31 06:16:55;;;;;;;65.85;62.33;;;;;;;8.95;100.00;102069.88;4988312;28;20034;-86
2022/10/31 06:19:20;;;;;;;72.93;69.63;;;;;;;8.95;100.00;102065.50;5010483;28;20022;-86
2022/10/31 06:21:46;;;;;;;74.10;70.82;;;;;;;8.89;100.00;102052.75;5018023;28;20033;-86
2022/10/31 06:24:11;;;;;;;71.30;68.20;;;;;;;8.87;100.00;102052.03;5009707;28;20045;-87
2022/10/31 06:26:36;;;;;;;67.35;63.95;;;;;;;8.97;100.00;102066.22;4988500;28;20045;-87
2022/10/31 06:29:02;;;;;;;71.97;68.57;;;;;;;8.86;100.00;102050.31;5006710;28;20110;-87
2022/10/31 06:31:27;;;;;;;74.38;70.70;;;;;;;8.93;100.00;102067.38;5018468;28;20033;-85
2022/10/31 06:33:53;;;;;;;78.47;74.90;;;;;;;8.95;100.00;102069.88;5000663;28;20492;-85
2022/10/31 06:36:18;;;;;;;71.00;67.95;;;;;;;8.79;100.00;102051.72;5024888;28;20060;-87
2022/10/31 06:38:43;;;;;;;73.10;69.85;;;;;;;8.85;100.00;102059.19;5021282;28;20081;-86
2022/10/31 06:41:09;;;;;;;73.95;70.45;;;;;;;8.87;100.00;102057.28;4992427;28;20029;-87
2022/10/31 06:43:34;;;;;;;74.10;70.35;;;;;;;8.77;100.00;102050.97;5011855;28;20026;-86
2022/10/31 06:46:04;;;;;;;72.03;68.40;;;;;;;8.96;100.00;102088.22;4996404;28;20030;-86
2022/10/31 06:48:30;;;;;;;70.20;67.03;;;;;;;8.92;100.00;102086.75;5016764;28;20431;-88
2022/10/31 06:51:00;;;;;;;71.90;68.28;;;;;;;8.90;100.00;102069.38;5022566;28;20432;-86
2022/10/31 06:53:26;;;;;;;78.05;74.38;;;;;;;8.85;100.00;102048.66;5015091;28;20062;-85
2022/10/31 06:55:51;;;;;;;63.25;60.35;;;;;;;9.06;100.00;102070.81;4998612;28;20093;-85
2022/10/31 06:58:17;;;;;;;68.30;65.15;;;;;;;8.94;100.00;102063.78;5013231;28;20559;-84
2022/10/31 07:00:42;;;;;;;73.97;69.90;;;;;;;8.87;100.00;102046.75;5001388;28;20041;-86
2022/10/31 07:03:12;;;;;;;69.57;66.05;;;;;;;9.10;100.00;102078.50;4982082;28;21798;-86
2022/10/31 07:05:38;;;;;;;78.60;75.17;;;;;;;9.06;100.00;102060.28;5017053;28;20846;-86
2022/10/31 07:08:06;;;;;;;74.35;71.10;;;;;;;9.14;100.00;102064.97;5001396;28;20041;-87
2022/10/31 07:10:33;;;;;;;68.78;65.63;;;;;;;9.22;100.00;102072.34;5033268;28;20070;-86
2022/10/31 07:13:01;;;;;;;76.78;73.32;;;;;;;9.19;100.00;102051.47;5022550;28;20782;-87
2022/10/31 07:15:28;;;;;;;76.05;72.50;;;;;;;9.19;100.00;102054.13;5017457;28;20082;-87
2022/10/31 07:17:54;;;;;;;84.32;80.03;;;;;;;9.16;100.00;102049.09;5021400;28;20480;-87
2022/10/31 07:20:19;;;;;;;77.53;73.40;;;;;;;9.34;100.00;102076.72;5023449;28;20057;-87
2022/10/31 07:22:45;;;;;;;83.00;79.00;;;;;;;9.35;100.00;102081.03;5004838;28;20136;-88
2022/10/31 07:25:11;;;;;;;73.07;69.72;;;;;;;9.40;100.00;102080.69;5022231;28;20029;-87
2022/10/31 07:27:41;;;;;;;83.78;79.45;;;;;;;9.43;100.00;102081.31;5017184;28;20021;-87
2022/10/31 07:30:09;;;;;;;81.05;77.00;;;;;;;9.38;100.00;102070.25;5018602;28;20034;-88
2022/10/31 07:32:45;;;;;;;76.75;73.03;;;;;;;9.33;100.00;102048.69;5000942;28;20082;-87
2022/10/31 07:35:14;;;;;;;83.53;79.18;;;;;;;9.66;100.00;102089.31;5017964;28;20037;-88
2022/10/31 07:37:39;;;;;;;80.40;76.50;;;;;;;9.73;100.00;102074.72;5017705;28;20029;-88
2022/10/31 07:40:07;;;;;;;76.03;72.15;;;;;;;10.07;100.00;102095.94;5019003;28;20059;-88
2022/10/31 07:42:40;;;;;;;74.13;70.20;;;;;;;10.36;100.00;102085.81;5016089;28;20037;-87
2022/10/31 07:45:08;;;;;;;72.95;68.82;;;;;;;10.82;100.00;102102.50;5022870;28;20086;-87
2022/10/31 07:47:40;;;;;;;76.18;72.18;;;;;;;11.01;100.00;102084.25;5026815;28;20021;-88
2022/10/31 07:50:07;;;;;;;90.30;86.10;;;;;;;11.24;100.00;102066.56;5016535;28;20038;-87
2022/10/31 07:52:32;;;;;;;64.28;61.10;;;;;;;11.54;100.00;102051.81;5017191;28;20034;-88
2022/10/31 07:54:58;;;;;;;51.35;48.13;;;;;;;12.01;100.00;102054.13;4999512;28;20048;-88
2022/10/31 07:57:23;;;;;;;29.40;27.70;;;;;;;11.93;100.00;102062.69;4997875;28;20057;-88
2022/10/31 07:59:48;;;;;;;27.63;25.60;;;;;;;12.24;100.00;102057.47;5016441;28;20521;-88
2022/10/31 08:02:14;;;;;;;27.27;25.50;;;;;;;12.19;100.00;102039.31;5000406;28;20120;-88
2022/10/31 08:04:39;;;;;;;20.33;18.90;;;;;;;11.89;100.00;102022.44;5002503;28;20065;-88
2022/10/31 08:07:04;;;;;;;19.45;17.70;;;;;;;11.91;100.00;102049.59;4982860;28;20041;-88
2022/10/31 08:09:30;;;;;;;17.75;16.65;;;;;;;11.62;100.00;102059.09;5016960;28;20026;-86
2022/10/31 08:11:55;;;;;;;20.83;19.45;;;;;;;11.34;100.00;102045.50;5019353;28;20128;-86
2022/10/31 08:14:22;;;;;;;25.65;23.75;;;;;;;11.35;100.00;102057.75;4999665;28;20554;-87
2022/10/31 08:16:47;;;;;;;28.83;27.02;;;;;;;11.70;100.00;102052.19;5006961;28;20407;-86
2022/10/31 08:19:13;;;;;;;33.05;30.75;;;;;;;11.49;100.00;101978.13;5015416;28;20022;-87
2022/10/31 08:21:38;;;;;;;30.60;29.02;;;;;;;11.94;100.00;102049.34;4999157;28;20029;-87
2022/10/31 08:24:04;;;;;;;31.02;29.02;;;;;;;11.43;100.00;102005.09;4984786;28;20030;-87
2022/10/31 08:26:30;;;;;;;27.55;25.83;;;;;;;11.53;100.00;102040.38;5001375;28;20033;-87
2022/10/31 08:28:56;;;;;;;33.85;31.67;;;;;;;11.48;100.00;102039.09;4983954;28;20643;-87
2022/10/31 08:31:22;;;;;;;37.47;35.40;;;;;;;11.53;100.00;102058.88;4986983;28;20033;-87
2022/10/31 08:33:48;;;;;;;47.85;45.50;;;;;;;11.65;100.00;102069.41;5017054;28;20033;-87
2022/10/31 08:36:13;;;;;;;43.58;41.28;;;;;;;11.65;100.00;102056.19;4998071;28;20041;-87
2022/10/31 08:38:39;;;;;;;49.13;46.38;;;;;;;11.57;100.00;102035.69;5017038;28;20019;-87
2022/10/31 08:41:04;;;;;;;47.17;44.97;;;;;;;11.88;100.00;102039.25;5003289;28;20033;-87
2022/10/31 08:43:29;;;;;;;52.30;49.40;;;;;;;12.27;100.00;102071.25;5017950;28;20033;-87
2022/10/31 08:45:55;;;;;;;63.22;60.15;;;;;;;13.06;100.00;102067.09;5017509;28;20037;-87
2022/10/31 08:48:21;;;;;;;44.08;41.83;;;;;;;12.91;100.00;102000.38;4998354;28;20026;-87
2022/10/31 08:50:47;;;;;;;32.10;30.55;;;;;;;13.45;100.00;102045.94;5019910;28;20101;-88
2022/10/31 08:53:16;;;;;;;29.92;28.17;;;;;;;13.77;100.00;102069.53;4999288;28;20087;-88
2022/10/31 08:55:44;;;;;;;23.08;21.60;;;;;;;13.41;100.00;102036.59;5016186;28;20022;-87
2022/10/31 08:58:21;;;;;;;26.67;24.88;;;;;;;13.82;100.00;102075.25;5032551;28;20927;-87
2022/10/31 09:00:49;;;;;;;23.85;22.27;;;;;;;14.06;100.00;102058.03;5016525;28;20059;-87
2022/10/31 09:03:26;;;;;;;24.42;22.83;;;;;;;14.49;100.00;102077.91;5017073;28;20036;-87
2022/10/31 09:05:55;;;;;;;23.90;22.20;;;;;;;14.56;99.06;102047.13;5024763;28;20032;-88
2022/10/31 09:08:21;;;;;;;21.73;20.45;;;;;;;14.95;98.10;102078.81;5023270;28;20030;-88
2022/10/31 09:10:47;;;;;;;25.45;24.05;;;;;;;15.95;96.58;102059.16;5016219;28;20213;-88
2022/10/31 09:13:16;;;;;;;19.17;17.88;;;;;;;16.80;90.47;102075.31;5000644;28;20048;-88
2022/10/31 09:15:43;;;;;;;13.38;12.05;;;;;;;17.01;86.46;102053.53;5015765;28;20025;-88
2022/10/31 09:18:10;;;;;;;11.75;10.45;;;;;;;17.97;83.71;102069.97;5017041;28;20029;-87
2022/10/31 09:20:37;;;;;;;11.27;9.23;;;;;;;17.86;80.35;102052.47;5016785;28;20035;-88
2022/10/31 09:23:05;;;;;;;9.10;8.02;;;;;;;17.67;83.25;102053.59;5009705;28;20025;-88
2022/10/31 09:25:32;;;;;;;9.95;8.18;;;;;;;18.14;80.67;102057.41;5018880;28;20041;-88
2022/10/31 09:27:59;;;;;;;9.27;8.05;;;;;;;17.93;80.19;102033.94;5002860;28;20030;-88
2022/10/31 09:30:29;;;;;;;9.05;8.15;;;;;;;18.97;77.91;102064.16;5020468;28;20034;-88
2022/10/31 09:32:56;;;;;;;7.65;6.78;;;;;;;19.33;75.56;102069.75;5003805;28;20053;-88
2022/10/31 09:35:22;;;;;;;11.88;10.68;;;;;;;18.87;75.86;102059.84;5024467;28;20049;-88
2022/10/31 09:37:57;;;;;;;10.25;7.50;;;;;;;18.11;77.40;102039.06;5018338;28;20049;-88
2022/10/31 09:40:30;;;;;;;12.50;7.05;;;;;;;17.63;79.56;102022.91;5022559;28;20031;-88
2022/10/31 09:43:30;;;;;;;8.70;6.72;;;;;;;19.26;81.98;102064.28;5017744;28;20025;-88
2022/10/31 09:46:01;;;;;;;9.55;6.57;;;;;;;20.43;72.11;102061.25;4986317;28;20517;-88
2022/10/31 09:48:52;;;;;;;9.85;6.35;;;;;;;18.77;74.81;102061.88;5017803;28;20017;-88
2022/10/31 09:51:30;;;;;;;9.73;6.68;;;;;;;19.21;75.04;102055.97;5017297;28;20061;-86
2022/10/31 09:54:26;;;;;;;8.55;7.15;;;;;;;18.48;75.77;102046.47;5017384;28;20026;-85
2022/10/31 09:56:51;;;;;;;8.32;6.10;;;;;;;19.27;74.65;102047.25;5018311;28;20451;-87
2022/10/31 09:59:25;;;;;;;9.18;6.78;;;;;;;19.57;72.87;102033.94;4993180;28;20077;-87
2022/10/31 10:02:03;;;;;;;9.98;7.28;;;;;;;21.81;69.66;102058.63;5019258;28;20116;-87
2022/10/31 10:04:58;;;;;;;9.63;6.47;;;;;;;20.67;69.78;102072.72;5018757;28;20579;-86
2022/10/31 10:07:32;;;;;;;8.10;5.82;;;;;;;19.46;72.18;102067.31;5025704;28;20026;-87
2022/10/31 10:10:01;;;;;;;7.68;6.30;;;;;;;20.65;70.40;102062.19;5016805;28;20033;-87
2022/10/31 10:12:46;;;;;;;8.80;5.70;;;;;;;20.87;70.96;102041.59;5015994;28;20022;-88
2022/10/31 10:15:38;;;;;;;7.45;6.55;;;;;;;21.64;67.68;102056.19;5015826;28;20030;-87
2022/10/31 10:18:17;;;;;;;7.57;5.80;;;;;;;21.93;65.74;102054.38;5019212;28;20991;-87
2022/10/31 10:21:01;;;;;;;6.30;5.55;;;;;;;21.45;69.37;102054.16;5021592;28;20025;-84
2022/10/31 10:23:42;;;;;;;6.97;4.75;;;;;;;23.50;63.68;102063.50;5019404;28;20021;-84
2022/10/31 10:26:21;;;;;;;;;;;;;;;23.42;61.46;102054.56;5018364;28;20634;-85
2022/10/31 10:28:57;;;;;;;9.50;5.28;;;;;;;23.32;61.19;102038.00;5023592;28;20333;-84
2022/10/31 10:31:40;;;;;;;7.07;5.38;;;;;;;22.93;61.53;102034.19;5017607;28;20539;-85
2022/10/31 10:34:30;;;;;;;7.22;5.32;;;;;;;22.91;62.49;102038.94;5019636;28;20037;-85
2022/10/31 10:37:04;;;;;;;7.88;6.70;;;;;;;21.97;64.06;102034.09;5019394;28;20039;-84
2022/10/31 10:39:35;;;;;;;7.38;5.57;;;;;;;22.01;65.59;102029.19;5017081;28;20041;-87
2022/10/31 10:47:43;;;;;;;7.07;6.03;;;;;;;20.74;68.27;102014.59;5016800;28;20520;-87
2022/10/31 10:50:12;;;;;;;7.38;5.60;;;;;;;19.47;72.37;102038.72;5015697;28;20084;-87
2022/10/31 10:52:53;;;;;;;9.52;6.28;;;;;;;18.99;74.91;102027.34;5023678;28;20128;-87
2022/10/31 10:55:37;;;;;;;9.55;6.13;;;;;;;19.69;74.62;102003.06;5017431;28;20026;-86
2022/10/31 10:58:06;;;;;;;10.57;6.53;;;;;;;19.21;74.85;102026.53;5017167;28;20034;-87
2022/10/31 11:00:39;;;;;;;8.13;6.47;;;;;;;18.76;76.03;102022.75;5016986;28;20038;-87
2022/10/31 11:03:05;;;;;;;10.77;7.32;;;;;;;17.87;79.21;102006.06;5018424;28;20052;-87
2022/10/31 11:05:37;;;;;;;8.55;7.72;;;;;;;17.44;80.62;102013.41;4999379;28;20084;-86
2022/10/31 11:08:03;;;;;;;10.50;9.57;;;;;;;16.74;82.59;101995.94;5019548;28;20480;-86
2022/10/31 11:10:29;;;;;;;12.80;11.75;;;;;;;16.44;84.38;102008.00;5007926;28;20097;-86
2022/10/31 11:13:09;;;;;;;17.63;16.23;;;;;;;16.36;86.10;102022.13;4992223;28;20038;-86
2022/10/31 11:15:52;;;;;;;17.55;16.45;;;;;;;16.14;87.33;102007.53;5016000;28;20021;-86
2022/10/31 11:18:25;;;;;;;22.88;21.35;;;;;;;16.46;88.02;102006.00;5022389;28;20500;-86
2022/10/31 11:20:53;;;;;;;25.00;23.35;;;;;;;16.59;86.92;102005.53;5024867;28;20034;-86
2022/10/31 11:23:21;;;;;;;25.05;23.58;;;;;;;17.21;86.33;102002.56;5016408;28;20021;-86